Aviation Digital Data Service (ADDS)

Output produced by METARs form (0840 UTC 01 November 2014)
found at http://www.aviationweather.gov/adds/metars/
 
KBMI 010520Z 0106/0206 35017KT P6SM BKN035 
     FM011400 01014KT P6SM SCT035 
     FM020000 05007KT P6SM SKC